createdAt,value
2017-12-08T00:00:20.501Z,6.00
2017-12-08T00:02:48.723Z,6.10
2017-12-08T00:05:17.014Z,5.30
2017-12-08T00:07:45.296Z,5.50
2017-12-08T00:10:13.599Z,5.70
2017-12-08T00:12:41.870Z,5.73
2017-12-08T00:15:10.101Z,6.93
2017-12-08T00:17:38.488Z,6.03
2017-12-08T00:20:06.734Z,5.50
2017-12-08T00:22:35.765Z,5.30
2017-12-08T00:25:04.110Z,5.17
2017-12-08T00:27:32.339Z,5.30
2017-12-08T00:30:00.606Z,5.70
2017-12-08T00:32:29.056Z,5.60
2017-12-08T00:34:57.303Z,6.37
2017-12-08T00:37:25.524Z,4.67
2017-12-08T00:39:53.913Z,4.73
2017-12-08T00:42:22.162Z,5.10
2017-12-08T00:44:50.460Z,5.00
2017-12-08T00:47:18.840Z,5.17
2017-12-08T00:49:47.083Z,5.43
2017-12-08T00:52:15.362Z,5.20
2017-12-08T00:54:43.682Z,5.30
2017-12-08T00:57:11.989Z,5.00
2017-12-08T00:59:41.077Z,5.80
2017-12-08T01:02:09.311Z,5.03
2017-12-08T01:04:38.329Z,5.20
2017-12-08T01:07:06.624Z,5.37
2017-12-08T01:09:34.845Z,5.10
2017-12-08T01:12:03.078Z,4.80
2017-12-08T01:14:31.404Z,5.70
2017-12-08T01:16:59.656Z,6.20
2017-12-08T01:19:28.636Z,5.20
2017-12-08T01:21:56.937Z,4.97
2017-12-08T01:24:25.178Z,5.80
2017-12-08T01:26:53.422Z,4.90
2017-12-08T01:29:21.828Z,5.00
2017-12-08T01:31:50.053Z,4.90
2017-12-08T01:34:18.296Z,4.40
2017-12-08T01:36:47.360Z,5.00
2017-12-08T01:39:15.598Z,5.43
2017-12-08T01:41:43.851Z,4.67
2017-12-08T01:44:12.127Z,5.40
2017-12-08T01:46:40.405Z,4.73
2017-12-08T01:49:09.522Z,4.47
2017-12-08T01:51:37.784Z,4.40
2017-12-08T01:54:06.036Z,4.70
2017-12-08T01:56:35.202Z,5.03
2017-12-08T01:59:03.429Z,4.67
2017-12-08T02:01:31.658Z,5.03
2017-12-08T02:04:00.046Z,4.80
2017-12-08T02:06:28.266Z,4.37
2017-12-08T02:08:56.582Z,4.43
2017-12-08T02:11:24.967Z,4.50
2017-12-08T02:13:53.201Z,4.60
2017-12-08T02:16:21.469Z,4.93
2017-12-08T02:18:49.740Z,5.10
2017-12-08T02:21:18.061Z,5.00
2017-12-08T02:23:46.300Z,4.50
2017-12-08T02:26:14.534Z,4.97
2017-12-08T02:28:43.644Z,4.73
2017-12-08T02:31:12.631Z,5.37
2017-12-08T02:33:41.647Z,4.57
2017-12-08T02:36:09.957Z,4.27
2017-12-08T02:38:38.236Z,5.20
2017-12-08T02:41:06.451Z,4.20
2017-12-08T02:43:35.492Z,4.27
2017-12-08T02:46:03.700Z,3.83
2017-12-08T02:48:31.932Z,4.70
2017-12-08T02:51:00.268Z,4.03
2017-12-08T02:53:28.580Z,4.50
2017-12-08T02:55:56.832Z,4.37
2017-12-08T02:58:25.160Z,4.63
2017-12-08T03:00:53.393Z,4.60
2017-12-08T03:03:21.610Z,4.50
2017-12-08T03:05:49.917Z,4.53
2017-12-08T03:08:18.942Z,3.70
2017-12-08T03:10:47.173Z,4.03
2017-12-08T03:13:15.579Z,4.20
2017-12-08T03:15:43.868Z,4.27
2017-12-08T03:18:12.103Z,4.40
2017-12-08T03:20:40.436Z,4.40
2017-12-08T03:23:08.682Z,4.00
2017-12-08T03:25:36.900Z,4.23
2017-12-08T03:28:05.178Z,3.70
2017-12-08T03:30:33.499Z,3.87
2017-12-08T03:33:02.499Z,3.90
2017-12-08T03:35:31.634Z,4.90
2017-12-08T03:37:59.891Z,3.97
2017-12-08T03:40:28.133Z,4.10
2017-12-08T03:42:56.447Z,5.13
2017-12-08T03:45:24.732Z,4.53
2017-12-08T03:47:53.045Z,3.20
2017-12-08T03:50:21.383Z,3.73
2017-12-08T03:52:49.606Z,4.30
2017-12-08T03:55:17.926Z,3.70
2017-12-08T03:57:46.222Z,4.03
2017-12-08T04:00:14.458Z,4.00
2017-12-08T04:02:42.729Z,3.20
2017-12-08T04:05:11.756Z,4.60
2017-12-08T04:07:40.161Z,4.30
2017-12-08T04:10:08.395Z,4.20
2017-12-08T04:12:36.633Z,4.17
2017-12-08T04:15:04.979Z,4.27
2017-12-08T04:17:33.213Z,4.43
2017-12-08T04:20:01.430Z,4.67
2017-12-08T04:22:29.746Z,4.50
2017-12-08T04:24:58.714Z,4.67
2017-12-08T04:27:27.043Z,4.07
2017-12-08T04:29:55.353Z,4.13
2017-12-08T04:32:23.638Z,4.13
2017-12-08T04:34:51.864Z,4.67
2017-12-08T04:37:20.169Z,4.67
2017-12-08T04:39:48.430Z,4.20
2017-12-08T04:42:16.651Z,3.93
2017-12-08T04:44:44.932Z,3.90
2017-12-08T04:47:13.951Z,5.43
2017-12-08T04:49:42.203Z,4.90
2017-12-08T04:52:10.514Z,5.37
2017-12-08T04:54:38.838Z,4.67
2017-12-08T04:57:07.126Z,5.10
2017-12-08T04:59:36.208Z,6.13
2017-12-08T05:02:04.441Z,5.33
2017-12-08T05:04:32.673Z,5.30
2017-12-08T05:07:01.777Z,4.97
2017-12-08T05:09:30.809Z,5.23
2017-12-08T05:11:59.045Z,4.80
2017-12-08T05:14:28.209Z,5.23
2017-12-08T05:16:56.496Z,7.67
2017-12-08T05:19:25.514Z,5.90
2017-12-08T05:21:53.806Z,6.53
2017-12-08T05:24:22.130Z,7.00
2017-12-08T05:26:50.492Z,6.03
2017-12-08T05:29:18.938Z,5.93
2017-12-08T05:31:47.184Z,5.90
2017-12-08T05:34:16.235Z,5.20
2017-12-08T05:36:44.534Z,5.80
2017-12-08T05:39:12.784Z,5.27
2017-12-08T05:41:41.018Z,5.10
2017-12-08T05:44:10.127Z,5.20
2017-12-08T05:46:38.400Z,5.70
2017-12-08T05:49:07.395Z,5.67
2017-12-08T05:51:35.695Z,6.80
2017-12-08T05:54:03.934Z,7.40
2017-12-08T05:56:33.032Z,7.23
2017-12-08T05:59:02.130Z,7.33
2017-12-08T06:01:31.127Z,6.63
2017-12-08T06:04:00.173Z,6.87
2017-12-08T06:06:28.439Z,6.00
2017-12-08T06:08:56.678Z,6.23
2017-12-08T06:11:25.014Z,6.40
2017-12-08T06:13:53.302Z,5.90
2017-12-08T06:16:21.521Z,4.67
2017-12-08T06:18:49.793Z,5.87
2017-12-08T06:21:18.174Z,5.73
2017-12-08T06:23:46.541Z,6.27
2017-12-08T06:26:14.823Z,6.57
2017-12-08T06:28:43.197Z,5.10
2017-12-08T06:31:11.672Z,5.10
2017-12-08T06:33:40.021Z,5.23
2017-12-08T06:36:09.057Z,5.90
2017-12-08T06:38:37.424Z,5.97
2017-12-08T06:41:05.709Z,5.07
2017-12-08T06:43:34.085Z,3.80
2017-12-08T06:46:02.391Z,5.10
2017-12-08T06:48:30.664Z,4.70
2017-12-08T06:50:58.915Z,5.20
2017-12-08T06:53:27.268Z,4.97
2017-12-08T06:55:55.525Z,5.20
2017-12-08T06:58:23.764Z,4.50
2017-12-08T07:00:52.058Z,4.70
2017-12-08T07:03:20.308Z,4.47
2017-12-08T07:05:48.518Z,5.90
2017-12-08T07:08:16.875Z,4.93
2017-12-08T07:10:45.235Z,4.73
2017-12-08T07:13:14.277Z,4.10
2017-12-08T07:15:42.632Z,4.30
2017-12-08T07:18:10.898Z,5.17
2017-12-08T07:20:39.126Z,4.60
2017-12-08T07:23:07.425Z,3.80
2017-12-08T07:28:32.541Z,6.30
2017-12-08T07:31:00.796Z,4.00
2017-12-08T07:33:29.071Z,3.77
2017-12-08T07:35:57.477Z,3.37
2017-12-08T07:38:25.701Z,3.80
2017-12-08T07:40:53.923Z,4.40
2017-12-08T07:43:22.300Z,4.27
2017-12-08T07:45:50.552Z,4.10
2017-12-08T07:48:19.578Z,3.90
2017-12-08T07:50:48.025Z,4.17
2017-12-08T07:53:17.219Z,3.70
2017-12-08T07:55:46.233Z,4.53
2017-12-08T07:58:14.583Z,4.77
2017-12-08T08:00:43.619Z,3.20
2017-12-08T08:03:11.849Z,4.00
2017-12-08T08:05:40.253Z,3.63
2017-12-08T08:08:08.495Z,3.70
2017-12-08T08:10:36.753Z,3.40
2017-12-08T08:13:05.012Z,3.70
2017-12-08T08:15:33.272Z,5.70
2017-12-08T08:18:01.527Z,11.90
2017-12-08T08:20:29.815Z,10.57
2017-12-08T08:22:58.135Z,36.67
2017-12-08T08:25:26.375Z,87.17
2017-12-08T08:27:54.675Z,83.73
2017-12-08T08:30:22.939Z,96.43
2017-12-08T08:32:51.170Z,7.00
2017-12-08T08:35:20.218Z,22.43
2017-12-08T08:37:48.665Z,99.53
2017-12-08T08:40:16.924Z,79.60
2017-12-08T08:42:45.202Z,77.17
2017-12-08T08:45:13.445Z,3.67
2017-12-08T08:47:42.472Z,11.93
2017-12-08T08:50:10.803Z,28.70
2017-12-08T08:52:39.169Z,15.57
2017-12-08T08:55:07.401Z,24.37
2017-12-08T08:57:35.685Z,6.77
2017-12-08T09:00:03.965Z,7.20
2017-12-08T09:02:32.249Z,10.23
2017-12-08T09:05:01.397Z,4.53
2017-12-08T09:07:29.675Z,17.67
2017-12-08T09:09:57.922Z,4.90
2017-12-08T09:12:26.214Z,12.17
2017-12-08T09:14:54.499Z,18.67
2017-12-08T09:17:22.770Z,11.70
2017-12-08T09:19:51.040Z,8.50
2017-12-08T09:22:19.272Z,6.70
2017-12-08T09:24:47.507Z,9.67
2017-12-08T09:27:15.882Z,7.80
2017-12-08T09:29:44.166Z,8.30
2017-12-08T09:32:13.215Z,8.17
2017-12-08T09:34:41.528Z,6.63
2017-12-08T09:37:09.834Z,14.23
2017-12-08T09:39:38.113Z,6.80
2017-12-08T09:42:06.382Z,7.50
2017-12-08T09:44:34.653Z,6.40
2017-12-08T09:47:02.935Z,8.83
2017-12-08T09:49:31.973Z,14.27
2017-12-08T09:52:00.270Z,14.80
2017-12-08T09:54:29.434Z,12.20
2017-12-08T09:56:57.832Z,7.37
2017-12-08T09:59:26.106Z,6.40
2017-12-08T10:01:54.370Z,4.63
2017-12-08T10:04:22.680Z,15.70
2017-12-08T10:06:50.931Z,9.83
2017-12-08T10:09:19.161Z,13.60
2017-12-08T10:11:47.449Z,10.17
2017-12-08T10:14:15.707Z,11.00
2017-12-08T10:16:43.955Z,11.17
2017-12-08T10:19:12.226Z,14.63
2017-12-08T10:21:40.463Z,9.17
2017-12-08T10:24:08.780Z,5.40
2017-12-08T10:26:37.046Z,5.20
2017-12-08T10:29:05.293Z,8.23
2017-12-08T10:31:33.589Z,13.37
2017-12-08T10:34:01.861Z,12.10
2017-12-08T10:36:30.093Z,9.90
2017-12-08T10:38:58.355Z,10.30
2017-12-08T10:41:27.430Z,6.37
2017-12-08T10:43:55.650Z,8.40
2017-12-08T10:46:23.931Z,9.83
2017-12-08T10:48:52.233Z,9.73
2017-12-08T10:51:20.464Z,10.50
2017-12-08T10:53:48.717Z,7.27
2017-12-08T10:56:17.773Z,12.00
2017-12-08T10:58:46.016Z,11.90
2017-12-08T11:01:14.298Z,14.10
2017-12-08T11:03:42.577Z,16.33
2017-12-08T11:06:10.852Z,10.10
2017-12-08T11:08:39.121Z,7.23
2017-12-08T11:11:07.375Z,7.90
2017-12-08T11:13:35.625Z,10.00
2017-12-08T11:16:03.871Z,9.10
2017-12-08T11:18:32.167Z,8.20
2017-12-08T11:21:00.400Z,10.10
2017-12-08T11:23:28.671Z,9.47
2017-12-08T11:25:56.950Z,8.77
2017-12-08T11:28:25.188Z,9.10
2017-12-08T11:30:54.221Z,9.80
2017-12-08T11:33:22.520Z,8.60
2017-12-08T11:35:52.119Z,8.53
2017-12-08T11:38:20.632Z,8.00
2017-12-08T11:40:48.948Z,9.43
2017-12-08T11:43:17.237Z,9.87
2017-12-08T11:45:45.502Z,11.37
2017-12-08T11:48:13.801Z,8.13
2017-12-08T11:50:42.123Z,11.10
2017-12-08T11:53:10.373Z,12.10
2017-12-08T11:55:38.659Z,12.13
2017-12-08T11:58:07.049Z,10.20
2017-12-08T12:00:35.370Z,10.70
2017-12-08T12:03:03.699Z,9.30
2017-12-08T12:05:31.919Z,11.50
2017-12-08T12:08:00.151Z,8.97
2017-12-08T12:10:28.470Z,10.93
2017-12-08T12:12:56.721Z,10.80
2017-12-08T12:15:25.746Z,11.70
2017-12-08T12:17:54.041Z,11.50
2017-12-08T12:20:22.300Z,12.03
2017-12-08T12:22:50.542Z,8.17
2017-12-08T12:25:18.827Z,7.00
2017-12-08T12:27:47.117Z,7.10
2017-12-08T12:30:15.351Z,8.33
2017-12-08T12:32:43.701Z,11.47
2017-12-08T12:35:11.980Z,10.07
2017-12-08T12:37:40.220Z,9.97
2017-12-08T12:40:08.582Z,8.00
2017-12-08T12:42:37.643Z,9.87
2017-12-08T12:45:05.940Z,9.07
2017-12-08T12:47:34.658Z,8.07
2017-12-08T12:50:03.024Z,10.20
2017-12-08T12:52:31.281Z,11.77
2017-12-08T12:55:00.343Z,13.70
2017-12-08T12:57:28.624Z,11.73
2017-12-08T12:59:56.925Z,9.00
2017-12-08T13:02:25.257Z,10.23
2017-12-08T13:04:53.510Z,11.23
2017-12-08T13:07:21.756Z,16.00
2017-12-08T13:09:50.129Z,10.40
2017-12-08T13:12:19.141Z,5.67
2017-12-08T13:14:47.431Z,5.10
2017-12-08T13:17:15.740Z,5.23
2017-12-08T13:19:44.019Z,5.77
2017-12-08T13:22:12.276Z,5.27
2017-12-08T13:24:40.639Z,6.00
2017-12-08T13:27:08.900Z,10.00
2017-12-08T13:29:37.187Z,10.63
2017-12-08T13:32:05.494Z,6.27
2017-12-08T13:34:33.791Z,12.23
2017-12-08T13:37:02.142Z,9.17
2017-12-08T13:39:30.490Z,8.17
2017-12-08T13:41:58.755Z,7.27
2017-12-08T13:44:27.006Z,7.83
2017-12-08T13:46:55.296Z,8.43
2017-12-08T13:49:24.305Z,6.13
2017-12-08T13:51:52.573Z,10.93
2017-12-08T13:54:38.669Z,7.33
2017-12-08T13:57:06.926Z,9.07
2017-12-08T13:59:35.228Z,6.57
2017-12-08T14:02:03.581Z,8.27
2017-12-08T14:04:32.656Z,6.20
2017-12-08T14:07:00.875Z,7.17
2017-12-08T14:09:29.172Z,6.33
2017-12-08T14:11:57.400Z,6.77
2017-12-08T14:14:26.409Z,7.10
2017-12-08T14:16:54.680Z,6.80
2017-12-08T14:19:22.958Z,8.50
2017-12-08T14:21:52.129Z,7.57
2017-12-08T14:24:20.408Z,7.33
2017-12-08T14:26:48.658Z,7.00
2017-12-08T14:29:16.964Z,9.10
2017-12-08T14:31:45.303Z,8.43
2017-12-08T14:34:13.616Z,8.90
2017-12-08T14:36:42.787Z,6.83
2017-12-08T14:39:11.080Z,8.50
2017-12-08T14:41:39.377Z,9.30
2017-12-08T14:44:07.818Z,7.50
2017-12-08T14:46:36.378Z,10.13
2017-12-08T14:49:04.680Z,9.40
2017-12-08T14:51:33.378Z,14.03
2017-12-08T14:54:01.671Z,10.73
2017-12-08T14:56:30.672Z,9.90
2017-12-08T14:58:59.140Z,11.77
2017-12-08T15:01:28.170Z,10.00
2017-12-08T15:03:56.437Z,11.90
2017-12-08T15:06:24.772Z,14.73
2017-12-08T15:08:53.059Z,18.10
2017-12-08T15:11:21.333Z,10.30
2017-12-08T15:13:49.703Z,9.93
2017-12-08T15:16:17.960Z,8.60
2017-12-08T15:18:46.444Z,8.83
2017-12-08T15:21:14.835Z,8.80
2017-12-08T15:23:43.112Z,8.20
2017-12-08T15:26:11.357Z,12.03
2017-12-08T15:28:39.684Z,9.30
2017-12-08T15:31:09.310Z,9.50
2017-12-08T15:33:37.599Z,10.60
2017-12-08T15:36:06.063Z,15.43
2017-12-08T15:38:35.070Z,13.80
2017-12-08T15:41:03.319Z,12.53
2017-12-08T15:43:32.451Z,18.93
2017-12-08T15:46:01.052Z,19.10
2017-12-08T15:48:29.290Z,18.23
2017-12-08T15:50:57.630Z,21.40
2017-12-08T15:53:25.866Z,26.27
2017-12-08T15:55:54.109Z,28.73
2017-12-08T15:58:23.984Z,24.83
2017-12-08T16:00:52.278Z,26.70
2017-12-08T16:03:21.278Z,13.53
2017-12-08T16:05:50.383Z,18.70
2017-12-08T16:08:19.418Z,20.70
2017-12-08T16:10:47.673Z,16.90
2017-12-08T16:13:16.039Z,12.10
2017-12-08T16:15:44.346Z,18.13
2017-12-08T16:18:12.663Z,21.90
2017-12-08T16:20:41.001Z,19.80
2017-12-08T16:23:09.296Z,18.90
2017-12-08T16:25:38.186Z,17.43
2017-12-08T16:28:06.649Z,18.83
2017-12-08T16:30:34.948Z,16.80
2017-12-08T16:33:03.290Z,21.27
2017-12-08T16:35:32.396Z,20.83
2017-12-08T16:38:00.705Z,22.17
2017-12-08T16:40:28.983Z,22.27
2017-12-08T16:42:57.349Z,20.27
2017-12-08T16:45:25.684Z,23.70
2017-12-08T16:47:54.300Z,27.23
2017-12-08T16:50:22.662Z,21.27
2017-12-08T16:52:50.947Z,23.57
2017-12-08T16:55:19.196Z,22.37
2017-12-08T16:57:47.506Z,21.63
2017-12-08T17:00:15.851Z,21.87
2017-12-08T17:02:44.896Z,22.90
2017-12-08T17:05:13.217Z,21.17
2017-12-08T17:07:41.484Z,16.30
2017-12-08T17:10:09.818Z,15.93
2017-12-08T17:12:38.101Z,14.37
2017-12-08T17:15:06.386Z,13.23
2017-12-08T17:17:35.475Z,12.33
2017-12-08T17:20:03.911Z,13.40
2017-12-08T17:22:32.930Z,11.17
2017-12-08T17:25:01.266Z,9.83
2017-12-08T17:27:29.621Z,11.03
2017-12-08T17:29:58.612Z,14.50
2017-12-08T17:32:27.816Z,18.17
2017-12-08T17:34:56.065Z,20.60
2017-12-08T17:37:24.329Z,21.60
2017-12-08T17:39:52.938Z,25.83
2017-12-08T17:42:21.217Z,23.40
2017-12-08T17:44:50.245Z,26.90
2017-12-08T17:47:18.737Z,24.13
2017-12-08T17:49:46.985Z,23.93
2017-12-08T17:52:15.249Z,18.40
2017-12-08T17:54:43.575Z,18.23
2017-12-08T17:57:11.820Z,21.07
2017-12-08T17:59:40.172Z,19.80
2017-12-08T18:02:09.197Z,16.20
2017-12-08T18:04:37.472Z,15.47
2017-12-08T18:07:05.961Z,15.90
2017-12-08T18:09:34.210Z,17.10
2017-12-08T18:12:04.102Z,15.70
2017-12-08T18:14:32.386Z,15.77
2017-12-08T18:17:00.680Z,14.67
2017-12-08T18:19:29.063Z,18.43
2017-12-08T18:21:57.358Z,14.93
2017-12-08T18:24:25.590Z,18.53
2017-12-08T18:26:54.591Z,17.60
2017-12-08T18:29:22.903Z,13.67
2017-12-08T18:31:51.140Z,16.20
2017-12-08T18:34:19.384Z,14.37
2017-12-08T18:36:47.785Z,13.30
2017-12-08T18:39:16.059Z,14.67
2017-12-08T18:41:45.139Z,13.10
2017-12-08T18:44:13.543Z,13.27
2017-12-08T18:46:42.941Z,13.60
2017-12-08T18:49:12.126Z,11.80
2017-12-08T18:51:40.376Z,13.37
2017-12-08T18:54:08.654Z,11.80
2017-12-08T18:56:37.088Z,10.87
2017-12-08T18:59:05.325Z,11.97
2017-12-08T19:01:33.600Z,15.13
2017-12-08T19:04:02.706Z,13.47
2017-12-08T19:06:31.808Z,12.27
2017-12-08T19:09:00.885Z,12.90
2017-12-08T19:11:29.947Z,11.43
2017-12-08T19:13:58.187Z,13.90
2017-12-08T19:16:26.437Z,17.70
2017-12-08T19:18:54.831Z,18.73
2017-12-08T19:21:23.867Z,15.53
2017-12-08T19:23:52.887Z,14.70
2017-12-08T19:26:21.289Z,12.30
2017-12-08T19:28:50.335Z,21.70
2017-12-08T19:31:18.601Z,21.33
2017-12-08T19:33:47.642Z,15.40
2017-12-08T19:36:15.955Z,15.83
2017-12-08T19:38:44.197Z,15.23
2017-12-08T19:41:13.305Z,13.07
2017-12-08T19:43:41.584Z,12.43
2017-12-08T19:46:12.408Z,10.33
2017-12-08T19:48:40.750Z,12.53
2017-12-08T19:51:09.680Z,11.53
2017-12-08T19:53:37.980Z,12.37
2017-12-08T19:56:06.275Z,12.70
2017-12-08T19:58:35.295Z,11.90
2017-12-08T20:01:03.543Z,12.47
2017-12-08T20:03:32.699Z,9.67
2017-12-08T20:06:01.765Z,10.07
2017-12-08T20:08:30.804Z,10.30
2017-12-08T20:10:59.109Z,10.37
2017-12-08T20:13:27.349Z,10.00
2017-12-08T20:15:55.612Z,10.57
2017-12-08T20:18:24.663Z,10.00
2017-12-08T20:20:52.896Z,11.00
2017-12-08T20:23:21.919Z,12.80
2017-12-08T20:25:50.226Z,10.30
2017-12-08T20:28:18.485Z,10.20
2017-12-08T20:30:46.800Z,22.30
2017-12-08T20:33:15.898Z,17.13
2017-12-08T20:35:44.919Z,10.93
2017-12-08T20:38:13.145Z,10.97
2017-12-08T20:40:41.455Z,15.27
2017-12-08T20:43:09.708Z,13.30
2017-12-08T20:45:38.798Z,12.03
2017-12-08T20:48:08.049Z,11.60
2017-12-08T20:50:37.390Z,11.33
2017-12-08T20:53:05.677Z,12.30
2017-12-08T20:55:34.069Z,20.07
2017-12-08T20:58:03.106Z,24.30
2017-12-08T21:00:31.377Z,26.97
2017-12-08T21:02:59.659Z,15.60
2017-12-08T21:05:27.938Z,15.57
2017-12-08T21:07:56.299Z,24.67
2017-12-08T21:10:24.696Z,56.77
2017-12-08T21:12:53.753Z,42.03
2017-12-08T21:15:22.003Z,34.10
2017-12-08T21:17:50.318Z,14.60
2017-12-08T21:20:18.621Z,15.87
2017-12-08T21:22:46.857Z,25.73
2017-12-08T21:25:15.168Z,23.93
2017-12-08T21:27:43.433Z,23.63
2017-12-08T21:30:11.713Z,20.80
2017-12-08T21:32:40.670Z,19.97
2017-12-08T21:35:08.923Z,29.30
2017-12-08T21:37:37.181Z,19.60
2017-12-08T21:40:05.580Z,29.97
2017-12-08T21:42:33.984Z,20.87
2017-12-08T21:45:02.983Z,25.50
2017-12-08T21:47:31.278Z,17.40
2017-12-08T21:49:59.614Z,18.17
2017-12-08T21:52:28.623Z,19.53
2017-12-08T21:54:57.687Z,22.73
2017-12-08T21:57:25.964Z,16.07
2017-12-08T21:59:54.190Z,19.20
2017-12-08T22:02:22.470Z,17.00
2017-12-08T22:04:50.722Z,19.70
2017-12-08T22:07:19.632Z,16.37
2017-12-08T22:09:48.023Z,19.77
2017-12-08T22:12:16.298Z,18.17
2017-12-08T22:14:44.657Z,21.53
2017-12-08T22:17:13.065Z,17.60
2017-12-08T22:19:41.418Z,17.93
2017-12-08T22:22:09.668Z,24.87
2017-12-08T22:24:38.046Z,24.60
2017-12-08T22:27:07.157Z,17.53
2017-12-08T22:29:35.468Z,17.77
2017-12-08T22:32:03.762Z,23.60
2017-12-08T22:34:32.099Z,25.23
2017-12-08T22:37:00.328Z,16.40
2017-12-08T22:39:28.597Z,24.80
2017-12-08T22:41:57.629Z,20.93
2017-12-08T22:44:25.912Z,21.50
2017-12-08T22:46:54.291Z,19.03
2017-12-08T22:49:22.653Z,21.80
2017-12-08T22:51:51.073Z,25.30
2017-12-08T22:54:19.400Z,23.03
2017-12-08T22:56:48.564Z,18.97
2017-12-08T22:59:16.791Z,17.67
2017-12-08T23:01:45.131Z,21.87
2017-12-08T23:04:13.406Z,19.20
2017-12-08T23:06:41.724Z,16.60
2017-12-08T23:09:10.128Z,21.73
2017-12-08T23:11:38.387Z,22.43
2017-12-08T23:14:07.450Z,16.77
2017-12-08T23:16:36.501Z,26.83
2017-12-08T23:19:04.739Z,21.50
2017-12-08T23:21:33.058Z,16.60
2017-12-08T23:24:02.256Z,21.47
2017-12-08T23:26:30.741Z,20.43
2017-12-08T23:28:59.110Z,17.73
2017-12-08T23:31:27.472Z,14.80
2017-12-08T23:33:55.819Z,18.90
2017-12-08T23:36:24.131Z,21.37
2017-12-08T23:38:52.575Z,22.33
2017-12-08T23:41:20.848Z,16.10
2017-12-08T23:43:49.130Z,20.07
2017-12-08T23:46:17.418Z,21.67
2017-12-08T23:48:45.659Z,20.60
2017-12-08T23:51:14.682Z,23.53
2017-12-08T23:53:43.293Z,18.97
2017-12-08T23:56:11.514Z,17.90
2017-12-08T23:58:40.577Z,16.43
